sensor_id;sensor_type;location;lat;lon;timestamp;P1;durP1;ratioP1;P2;durP2;ratioP2
15404;SDS011;7801;48.124;11.590;2024-03-02T00:00:52;2.60;;;2.23;;
15404;SDS011;7801;48.124;11.590;2024-03-02T00:03:19;2.23;;;2.13;;
15404;SDS011;7801;48.124;11.590;2024-03-02T00:05:49;2.00;;;1.90;;
15404;SDS011;7801;48.124;11.590;2024-03-02T00:08:25;2.67;;;2.57;;
15404;SDS011;7801;48.124;11.590;2024-03-02T00:10:53;2.30;;;2.10;;
15404;SDS011;7801;48.124;11.590;2024-03-02T00:13:30;2.40;;;2.30;;
15404;SDS011;7801;48.124;11.590;2024-03-02T00:15:58;2.87;;;2.67;;
15404;SDS011;7801;48.124;11.590;2024-03-02T00:18:34;2.93;;;2.73;;
15404;SDS011;7801;48.124;11.590;2024-03-02T00:21:00;2.30;;;2.10;;
15404;SDS011;7801;48.124;11.590;2024-03-02T00:23:31;3.27;;;3.07;;
15404;SDS011;7801;48.124;11.590;2024-03-02T00:25:59;4.00;;;3.60;;
15404;SDS011;7801;48.124;11.590;2024-03-02T00:28:27;2.83;;;2.63;;
15404;SDS011;7801;48.124;11.590;2024-03-02T00:33:45;3.33;;;3.13;;
15404;SDS011;7801;48.124;11.590;2024-03-02T00:36:14;2.27;;;2.17;;
15404;SDS011;7801;48.124;11.590;2024-03-02T00:38:49;2.37;;;2.13;;
15404;SDS011;7801;48.124;11.590;2024-03-02T00:41:27;2.23;;;2.13;;
15404;SDS011;7801;48.124;11.590;2024-03-02T00:44:06;3.37;;;2.53;;
15404;SDS011;7801;48.124;11.590;2024-03-02T00:46:33;2.40;;;2.20;;
15404;SDS011;7801;48.124;11.590;2024-03-02T00:49:02;2.90;;;2.70;;
15404;SDS011;7801;48.124;11.590;2024-03-02T00:51:36;3.17;;;2.50;;
15404;SDS011;7801;48.124;11.590;2024-03-02T00:54:03;1.87;;;1.77;;
15404;SDS011;7801;48.124;11.590;2024-03-02T00:56:31;2.97;;;2.87;;
15404;SDS011;7801;48.124;11.590;2024-03-02T00:58:58;2.83;;;2.37;;
15404;SDS011;7801;48.124;11.590;2024-03-02T01:01:25;2.73;;;2.63;;
15404;SDS011;7801;48.124;11.590;2024-03-02T01:03:52;2.13;;;2.03;;
15404;SDS011;7801;48.124;11.590;2024-03-02T01:06:19;2.20;;;2.10;;
15404;SDS011;7801;48.124;11.590;2024-03-02T01:08:45;2.83;;;2.30;;
15404;SDS011;7801;48.124;11.590;2024-03-02T01:11:14;3.63;;;2.73;;
15404;SDS011;7801;48.124;11.590;2024-03-02T01:13:40;3.07;;;2.97;;
15404;SDS011;7801;48.124;11.590;2024-03-02T01:16:06;2.10;;;2.00;;
15404;SDS011;7801;48.124;11.590;2024-03-02T01:18:33;2.17;;;2.07;;
15404;SDS011;7801;48.124;11.590;2024-03-02T01:21:01;2.63;;;2.53;;
15404;SDS011;7801;48.124;11.590;2024-03-02T01:23:27;3.07;;;2.10;;
15404;SDS011;7801;48.124;11.590;2024-03-02T01:25:55;2.30;;;2.20;;
15404;SDS011;7801;48.124;11.590;2024-03-02T01:28:22;2.23;;;2.13;;
15404;SDS011;7801;48.124;11.590;2024-03-02T01:30:48;2.23;;;2.03;;
15404;SDS011;7801;48.124;11.590;2024-03-02T01:33:16;3.40;;;2.83;;
15404;SDS011;7801;48.124;11.590;2024-03-02T01:35:42;1.73;;;1.73;;
15404;SDS011;7801;48.124;11.590;2024-03-02T01:38:07;2.97;;;2.80;;
15404;SDS011;7801;48.124;11.590;2024-03-02T01:40:34;1.87;;;1.87;;
15404;SDS011;7801;48.124;11.590;2024-03-02T01:43:02;1.90;;;1.80;;
15404;SDS011;7801;48.124;11.590;2024-03-02T01:45:31;1.93;;;1.83;;
15404;SDS011;7801;48.124;11.590;2024-03-02T01:47:58;2.43;;;2.33;;
15404;SDS011;7801;48.124;11.590;2024-03-02T01:50:26;2.10;;;2.00;;
15404;SDS011;7801;48.124;11.590;2024-03-02T01:52:56;1.90;;;1.80;;
15404;SDS011;7801;48.124;11.590;2024-03-02T01:55:23;1.47;;;1.47;;
15404;SDS011;7801;48.124;11.590;2024-03-02T01:57:50;2.23;;;2.13;;
15404;SDS011;7801;48.124;11.590;2024-03-02T02:00:17;2.57;;;2.37;;
15404;SDS011;7801;48.124;11.590;2024-03-02T02:02:46;2.20;;;2.00;;
15404;SDS011;7801;48.124;11.590;2024-03-02T02:05:14;2.13;;;2.00;;
15404;SDS011;7801;48.124;11.590;2024-03-02T02:07:43;2.37;;;2.27;;
15404;SDS011;7801;48.124;11.590;2024-03-02T02:10:10;2.10;;;2.00;;
15404;SDS011;7801;48.124;11.590;2024-03-02T02:12:36;2.10;;;2.00;;
15404;SDS011;7801;48.124;11.590;2024-03-02T02:15:04;1.43;;;1.33;;
15404;SDS011;7801;48.124;11.590;2024-03-02T02:17:47;1.83;;;1.73;;
15404;SDS011;7801;48.124;11.590;2024-03-02T02:20:13;2.83;;;2.60;;
15404;SDS011;7801;48.124;11.590;2024-03-02T02:22:38;2.80;;;2.70;;
15404;SDS011;7801;48.124;11.590;2024-03-02T02:25:05;2.50;;;2.33;;
15404;SDS011;7801;48.124;11.590;2024-03-02T02:27:30;2.10;;;2.00;;
15404;SDS011;7801;48.124;11.590;2024-03-02T02:29:57;2.30;;;2.20;;
15404;SDS011;7801;48.124;11.590;2024-03-02T02:32:24;1.30;;;1.30;;
15404;SDS011;7801;48.124;11.590;2024-03-02T02:34:53;1.83;;;1.73;;
15404;SDS011;7801;48.124;11.590;2024-03-02T02:37:19;2.33;;;2.23;;
15404;SDS011;7801;48.124;11.590;2024-03-02T02:39:46;2.37;;;2.20;;
15404;SDS011;7801;48.124;11.590;2024-03-02T02:42:12;2.60;;;2.43;;
15404;SDS011;7801;48.124;11.590;2024-03-02T02:44:38;6.17;;;3.17;;
15404;SDS011;7801;48.124;11.590;2024-03-02T02:47:05;2.60;;;2.40;;
15404;SDS011;7801;48.124;11.590;2024-03-02T02:49:30;3.50;;;3.20;;
15404;SDS011;7801;48.124;11.590;2024-03-02T02:51:57;3.07;;;2.87;;
15404;SDS011;7801;48.124;11.590;2024-03-02T02:54:24;2.30;;;2.20;;
15404;SDS011;7801;48.124;11.590;2024-03-02T02:56:51;2.73;;;2.53;;
15404;SDS011;7801;48.124;11.590;2024-03-02T02:59:17;2.10;;;2.00;;
15404;SDS011;7801;48.124;11.590;2024-03-02T03:01:44;2.77;;;2.57;;
15404;SDS011;7801;48.124;11.590;2024-03-02T03:04:10;2.27;;;2.07;;
15404;SDS011;7801;48.124;11.590;2024-03-02T03:06:36;3.00;;;2.80;;
15404;SDS011;7801;48.124;11.590;2024-03-02T03:09:01;2.70;;;1.90;;
15404;SDS011;7801;48.124;11.590;2024-03-02T03:11:28;3.80;;;3.17;;
15404;SDS011;7801;48.124;11.590;2024-03-02T03:13:57;1.53;;;1.53;;
15404;SDS011;7801;48.124;11.590;2024-03-02T03:16:24;1.73;;;1.63;;
15404;SDS011;7801;48.124;11.590;2024-03-02T03:18:50;2.73;;;2.53;;
15404;SDS011;7801;48.124;11.590;2024-03-02T03:21:18;2.33;;;2.23;;
15404;SDS011;7801;48.124;11.590;2024-03-02T03:23:44;1.73;;;1.73;;
15404;SDS011;7801;48.124;11.590;2024-03-02T03:26:10;3.13;;;2.93;;
15404;SDS011;7801;48.124;11.590;2024-03-02T03:28:35;3.23;;;2.93;;
15404;SDS011;7801;48.124;11.590;2024-03-02T03:31:02;1.97;;;1.87;;
15404;SDS011;7801;48.124;11.590;2024-03-02T03:33:29;5.00;;;1.87;;
15404;SDS011;7801;48.124;11.590;2024-03-02T03:35:56;2.83;;;2.63;;
15404;SDS011;7801;48.124;11.590;2024-03-02T03:38:23;2.57;;;2.47;;
15404;SDS011;7801;48.124;11.590;2024-03-02T03:40:49;2.73;;;2.53;;
15404;SDS011;7801;48.124;11.590;2024-03-02T03:43:17;2.40;;;2.27;;
15404;SDS011;7801;48.124;11.590;2024-03-02T03:45:43;2.27;;;2.10;;
15404;SDS011;7801;48.124;11.590;2024-03-02T03:48:10;2.50;;;2.40;;
15404;SDS011;7801;48.124;11.590;2024-03-02T03:50:35;1.93;;;1.83;;
15404;SDS011;7801;48.124;11.590;2024-03-02T03:53:00;2.03;;;1.93;;
15404;SDS011;7801;48.124;11.590;2024-03-02T03:55:27;2.97;;;2.77;;
15404;SDS011;7801;48.124;11.590;2024-03-02T03:57:52;2.83;;;2.70;;
15404;SDS011;7801;48.124;11.590;2024-03-02T04:00:19;2.47;;;2.37;;
15404;SDS011;7801;48.124;11.590;2024-03-02T04:02:45;2.10;;;2.03;;
15404;SDS011;7801;48.124;11.590;2024-03-02T04:05:12;2.77;;;2.63;;
15404;SDS011;7801;48.124;11.590;2024-03-02T04:07:38;3.07;;;2.97;;
15404;SDS011;7801;48.124;11.590;2024-03-02T04:10:09;2.83;;;2.70;;
15404;SDS011;7801;48.124;11.590;2024-03-02T04:12:37;2.93;;;2.77;;
15404;SDS011;7801;48.124;11.590;2024-03-02T04:15:04;2.23;;;2.13;;
15404;SDS011;7801;48.124;11.590;2024-03-02T04:17:31;2.87;;;2.67;;
15404;SDS011;7801;48.124;11.590;2024-03-02T04:19:59;3.33;;;3.07;;
15404;SDS011;7801;48.124;11.590;2024-03-02T04:22:27;3.33;;;3.23;;
15404;SDS011;7801;48.124;11.590;2024-03-02T04:24:54;4.07;;;3.77;;
15404;SDS011;7801;48.124;11.590;2024-03-02T04:27:21;2.43;;;2.33;;
15404;SDS011;7801;48.124;11.590;2024-03-02T04:29:48;2.50;;;2.40;;
15404;SDS011;7801;48.124;11.590;2024-03-02T04:32:15;4.03;;;3.67;;
15404;SDS011;7801;48.124;11.590;2024-03-02T04:34:41;3.40;;;3.20;;
15404;SDS011;7801;48.124;11.590;2024-03-02T04:37:07;3.90;;;3.60;;
15404;SDS011;7801;48.124;11.590;2024-03-02T04:39:34;1.83;;;1.83;;
15404;SDS011;7801;48.124;11.590;2024-03-02T04:42:00;3.10;;;2.90;;
15404;SDS011;7801;48.124;11.590;2024-03-02T04:44:27;3.30;;;3.00;;
15404;SDS011;7801;48.124;11.590;2024-03-02T04:46:53;2.87;;;2.67;;
15404;SDS011;7801;48.124;11.590;2024-03-02T04:49:20;3.13;;;2.87;;
15404;SDS011;7801;48.124;11.590;2024-03-02T04:51:47;2.83;;;2.73;;
15404;SDS011;7801;48.124;11.590;2024-03-02T04:54:13;4.13;;;2.97;;
15404;SDS011;7801;48.124;11.590;2024-03-02T04:56:41;9.67;;;3.83;;
15404;SDS011;7801;48.124;11.590;2024-03-02T04:59:10;3.70;;;3.37;;
15404;SDS011;7801;48.124;11.590;2024-03-02T05:01:37;3.90;;;3.43;;
15404;SDS011;7801;48.124;11.590;2024-03-02T05:04:04;3.27;;;2.97;;
15404;SDS011;7801;48.124;11.590;2024-03-02T05:06:30;3.57;;;3.37;;
15404;SDS011;7801;48.124;11.590;2024-03-02T05:08:57;2.97;;;2.80;;
15404;SDS011;7801;48.124;11.590;2024-03-02T05:11:25;3.83;;;3.63;;
15404;SDS011;7801;48.124;11.590;2024-03-02T05:14:06;3.00;;;2.90;;
15404;SDS011;7801;48.124;11.590;2024-03-02T05:16:36;4.03;;;3.47;;
15404;SDS011;7801;48.124;11.590;2024-03-02T05:19:06;2.53;;;2.43;;
15404;SDS011;7801;48.124;11.590;2024-03-02T05:21:32;3.90;;;3.60;;
15404;SDS011;7801;48.124;11.590;2024-03-02T05:23:59;3.40;;;3.10;;
15404;SDS011;7801;48.124;11.590;2024-03-02T05:26:26;4.20;;;3.90;;
15404;SDS011;7801;48.124;11.590;2024-03-02T05:28:53;4.00;;;3.70;;
15404;SDS011;7801;48.124;11.590;2024-03-02T05:31:19;3.47;;;3.17;;
15404;SDS011;7801;48.124;11.590;2024-03-02T05:33:46;3.17;;;2.97;;
15404;SDS011;7801;48.124;11.590;2024-03-02T05:36:13;3.57;;;3.37;;
15404;SDS011;7801;48.124;11.590;2024-03-02T05:38:39;2.13;;;2.03;;
15404;SDS011;7801;48.124;11.590;2024-03-02T05:41:05;2.70;;;2.60;;
15404;SDS011;7801;48.124;11.590;2024-03-02T05:43:30;2.20;;;2.10;;
15404;SDS011;7801;48.124;11.590;2024-03-02T05:45:57;3.80;;;3.23;;
15404;SDS011;7801;48.124;11.590;2024-03-02T05:48:23;3.13;;;3.00;;
15404;SDS011;7801;48.124;11.590;2024-03-02T05:50:50;2.77;;;2.63;;
15404;SDS011;7801;48.124;11.590;2024-03-02T05:53:16;3.50;;;3.10;;
15404;SDS011;7801;48.124;11.590;2024-03-02T05:55:43;4.00;;;3.73;;
15404;SDS011;7801;48.124;11.590;2024-03-02T05:58:10;4.00;;;3.70;;
15404;SDS011;7801;48.124;11.590;2024-03-02T06:00:59;3.17;;;2.87;;
15404;SDS011;7801;48.124;11.590;2024-03-02T06:03:25;3.00;;;2.80;;
15404;SDS011;7801;48.124;11.590;2024-03-02T06:05:52;3.50;;;3.30;;
15404;SDS011;7801;48.124;11.590;2024-03-02T06:08:18;2.83;;;2.73;;
15404;SDS011;7801;48.124;11.590;2024-03-02T06:10:45;4.27;;;3.90;;
15404;SDS011;7801;48.124;11.590;2024-03-02T06:13:12;3.83;;;3.53;;
15404;SDS011;7801;48.124;11.590;2024-03-02T06:15:37;3.43;;;3.13;;
15404;SDS011;7801;48.124;11.590;2024-03-02T06:18:04;3.57;;;3.37;;
15404;SDS011;7801;48.124;11.590;2024-03-02T06:20:31;3.17;;;3.00;;
15404;SDS011;7801;48.124;11.590;2024-03-02T06:22:58;3.40;;;3.10;;
15404;SDS011;7801;48.124;11.590;2024-03-02T06:25:24;3.37;;;3.27;;
15404;SDS011;7801;48.124;11.590;2024-03-02T06:27:51;4.33;;;4.03;;
15404;SDS011;7801;48.124;11.590;2024-03-02T06:30:17;2.87;;;2.77;;
15404;SDS011;7801;48.124;11.590;2024-03-02T06:32:44;3.93;;;3.17;;
15404;SDS011;7801;48.124;11.590;2024-03-02T06:35:10;3.93;;;3.67;;
15404;SDS011;7801;48.124;11.590;2024-03-02T06:37:38;3.73;;;3.53;;
15404;SDS011;7801;48.124;11.590;2024-03-02T06:40:06;3.97;;;3.70;;
15404;SDS011;7801;48.124;11.590;2024-03-02T06:42:33;4.17;;;3.77;;
15404;SDS011;7801;48.124;11.590;2024-03-02T06:45:00;4.00;;;3.70;;
15404;SDS011;7801;48.124;11.590;2024-03-02T06:47:27;3.67;;;2.53;;
15404;SDS011;7801;48.124;11.590;2024-03-02T06:49:54;3.70;;;3.40;;
15404;SDS011;7801;48.124;11.590;2024-03-02T06:52:20;4.87;;;3.93;;
15404;SDS011;7801;48.124;11.590;2024-03-02T06:54:47;4.80;;;4.50;;
15404;SDS011;7801;48.124;11.590;2024-03-02T06:57:12;4.43;;;4.13;;
15404;SDS011;7801;48.124;11.590;2024-03-02T06:59:38;3.20;;;3.00;;
15404;SDS011;7801;48.124;11.590;2024-03-02T07:02:03;4.83;;;4.53;;
15404;SDS011;7801;48.124;11.590;2024-03-02T07:04:30;8.37;;;7.23;;
15404;SDS011;7801;48.124;11.590;2024-03-02T07:06:56;7.20;;;6.50;;
15404;SDS011;7801;48.124;11.590;2024-03-02T07:09:23;11.13;;;6.97;;
15404;SDS011;7801;48.124;11.590;2024-03-02T07:11:49;5.30;;;4.80;;
15404;SDS011;7801;48.124;11.590;2024-03-02T07:14:16;6.50;;;5.80;;
15404;SDS011;7801;48.124;11.590;2024-03-02T07:16:42;4.03;;;3.80;;
15404;SDS011;7801;48.124;11.590;2024-03-02T07:19:09;5.27;;;4.77;;
15404;SDS011;7801;48.124;11.590;2024-03-02T07:21:35;5.83;;;5.43;;
15404;SDS011;7801;48.124;11.590;2024-03-02T07:24:01;5.23;;;4.93;;
15404;SDS011;7801;48.124;11.590;2024-03-02T07:26:31;5.30;;;4.93;;
15404;SDS011;7801;48.124;11.590;2024-03-02T07:28:58;5.90;;;5.43;;
15404;SDS011;7801;48.124;11.590;2024-03-02T07:31:24;6.83;;;5.53;;
15404;SDS011;7801;48.124;11.590;2024-03-02T07:33:51;5.50;;;4.37;;
15404;SDS011;7801;48.124;11.590;2024-03-02T07:36:18;4.57;;;4.37;;
15404;SDS011;7801;48.124;11.590;2024-03-02T07:38:45;4.67;;;4.37;;
15404;SDS011;7801;48.124;11.590;2024-03-02T07:41:12;4.63;;;4.43;;
15404;SDS011;7801;48.124;11.590;2024-03-02T07:43:37;4.33;;;3.93;;
15404;SDS011;7801;48.124;11.590;2024-03-02T07:46:03;4.00;;;3.80;;
15404;SDS011;7801;48.124;11.590;2024-03-02T07:48:30;5.50;;;4.50;;
15404;SDS011;7801;48.124;11.590;2024-03-02T07:50:57;10.00;;;6.13;;
15404;SDS011;7801;48.124;11.590;2024-03-02T07:53:23;4.83;;;4.53;;
15404;SDS011;7801;48.124;11.590;2024-03-02T07:55:50;10.57;;;6.10;;
15404;SDS011;7801;48.124;11.590;2024-03-02T07:58:16;3.90;;;3.70;;
15404;SDS011;7801;48.124;11.590;2024-03-02T08:00:46;4.63;;;4.23;;
15404;SDS011;7801;48.124;11.590;2024-03-02T08:03:12;4.40;;;4.20;;
15404;SDS011;7801;48.124;11.590;2024-03-02T08:05:39;4.03;;;3.83;;
15404;SDS011;7801;48.124;11.590;2024-03-02T08:08:05;3.53;;;3.33;;
15404;SDS011;7801;48.124;11.590;2024-03-02T08:10:31;4.47;;;4.07;;
15404;SDS011;7801;48.124;11.590;2024-03-02T08:12:57;3.20;;;3.03;;
15404;SDS011;7801;48.124;11.590;2024-03-02T08:15:24;4.30;;;1.47;;
15404;SDS011;7801;48.124;11.590;2024-03-02T08:17:51;4.63;;;2.57;;
15404;SDS011;7801;48.124;11.590;2024-03-02T08:20:17;4.63;;;4.23;;
15404;SDS011;7801;48.124;11.590;2024-03-02T08:22:46;3.97;;;3.50;;
15404;SDS011;7801;48.124;11.590;2024-03-02T08:25:13;2.20;;;2.10;;
15404;SDS011;7801;48.124;11.590;2024-03-02T08:27:39;3.13;;;2.77;;
15404;SDS011;7801;48.124;11.590;2024-03-02T08:30:05;3.47;;;3.27;;
15404;SDS011;7801;48.124;11.590;2024-03-02T08:32:31;4.83;;;4.27;;
15404;SDS011;7801;48.124;11.590;2024-03-02T08:34:58;2.77;;;2.67;;
15404;SDS011;7801;48.124;11.590;2024-03-02T08:37:24;3.57;;;3.33;;
15404;SDS011;7801;48.124;11.590;2024-03-02T08:39:51;4.40;;;3.93;;
15404;SDS011;7801;48.124;11.590;2024-03-02T08:42:18;2.77;;;2.60;;
15404;SDS011;7801;48.124;11.590;2024-03-02T08:44:43;3.73;;;3.40;;
15404;SDS011;7801;48.124;11.590;2024-03-02T08:47:10;3.93;;;3.63;;
15404;SDS011;7801;48.124;11.590;2024-03-02T08:49:35;4.27;;;3.87;;
15404;SDS011;7801;48.124;11.590;2024-03-02T08:52:00;3.70;;;3.50;;
15404;SDS011;7801;48.124;11.590;2024-03-02T08:54:27;4.20;;;4.00;;
15404;SDS011;7801;48.124;11.590;2024-03-02T08:56:54;4.53;;;4.23;;
15404;SDS011;7801;48.124;11.590;2024-03-02T08:59:20;4.37;;;3.93;;
15404;SDS011;7801;48.124;11.590;2024-03-02T09:01:47;4.43;;;4.23;;
15404;SDS011;7801;48.124;11.590;2024-03-02T09:04:14;3.57;;;3.37;;
15404;SDS011;7801;48.124;11.590;2024-03-02T09:06:40;4.13;;;3.93;;
15404;SDS011;7801;48.124;11.590;2024-03-02T09:09:06;3.87;;;3.57;;
15404;SDS011;7801;48.124;11.590;2024-03-02T09:11:32;4.57;;;4.17;;
15404;SDS011;7801;48.124;11.590;2024-03-02T09:13:58;3.80;;;3.60;;
15404;SDS011;7801;48.124;11.590;2024-03-02T09:16:25;4.47;;;4.20;;
15404;SDS011;7801;48.124;11.590;2024-03-02T09:18:56;5.20;;;4.83;;
15404;SDS011;7801;48.124;11.590;2024-03-02T09:21:23;5.80;;;5.20;;
15404;SDS011;7801;48.124;11.590;2024-03-02T09:23:52;4.47;;;4.17;;
15404;SDS011;7801;48.124;11.590;2024-03-02T09:26:18;4.83;;;3.67;;
15404;SDS011;7801;48.124;11.590;2024-03-02T09:28:46;4.43;;;4.03;;
15404;SDS011;7801;48.124;11.590;2024-03-02T09:31:13;4.00;;;3.63;;
15404;SDS011;7801;48.124;11.590;2024-03-02T09:33:39;3.97;;;3.67;;
15404;SDS011;7801;48.124;11.590;2024-03-02T09:36:05;3.97;;;3.67;;
15404;SDS011;7801;48.124;11.590;2024-03-02T09:38:43;3.97;;;3.67;;
15404;SDS011;7801;48.124;11.590;2024-03-02T09:41:09;3.97;;;3.70;;
15404;SDS011;7801;48.124;11.590;2024-03-02T09:43:35;3.97;;;3.73;;
15404;SDS011;7801;48.124;11.590;2024-03-02T09:46:01;3.17;;;2.97;;
15404;SDS011;7801;48.124;11.590;2024-03-02T09:48:28;4.07;;;3.77;;
15404;SDS011;7801;48.124;11.590;2024-03-02T09:50:55;2.80;;;2.67;;
15404;SDS011;7801;48.124;11.590;2024-03-02T09:53:22;3.93;;;2.70;;
15404;SDS011;7801;48.124;11.590;2024-03-02T09:55:49;3.77;;;3.57;;
15404;SDS011;7801;48.124;11.590;2024-03-02T09:58:16;3.73;;;3.53;;
15404;SDS011;7801;48.124;11.590;2024-03-02T10:00:41;2.53;;;2.43;;
15404;SDS011;7801;48.124;11.590;2024-03-02T10:03:11;3.80;;;3.50;;
15404;SDS011;7801;48.124;11.590;2024-03-02T10:05:37;3.07;;;2.87;;
15404;SDS011;7801;48.124;11.590;2024-03-02T10:08:03;3.30;;;3.10;;
15404;SDS011;7801;48.124;11.590;2024-03-02T10:10:36;5.23;;;2.83;;
15404;SDS011;7801;48.124;11.590;2024-03-02T10:13:08;2.73;;;2.50;;
15404;SDS011;7801;48.124;11.590;2024-03-02T10:15:36;2.37;;;2.27;;
15404;SDS011;7801;48.124;11.590;2024-03-02T10:18:08;2.33;;;2.13;;
15404;SDS011;7801;48.124;11.590;2024-03-02T10:20:38;3.93;;;3.50;;
15404;SDS011;7801;48.124;11.590;2024-03-02T10:23:13;2.60;;;2.47;;
15404;SDS011;7801;48.124;11.590;2024-03-02T10:25:41;2.40;;;2.20;;
15404;SDS011;7801;48.124;11.590;2024-03-02T10:28:09;2.97;;;2.70;;
15404;SDS011;7801;48.124;11.590;2024-03-02T10:30:35;2.00;;;1.90;;
15404;SDS011;7801;48.124;11.590;2024-03-02T10:33:01;2.37;;;2.27;;
15404;SDS011;7801;48.124;11.590;2024-03-02T10:35:29;2.60;;;2.40;;
15404;SDS011;7801;48.124;11.590;2024-03-02T10:38:01;2.47;;;2.27;;
15404;SDS011;7801;48.124;11.590;2024-03-02T10:40:31;3.47;;;3.17;;
15404;SDS011;7801;48.124;11.590;2024-03-02T10:42:59;2.43;;;2.23;;
15404;SDS011;7801;48.124;11.590;2024-03-02T10:45:29;2.30;;;2.20;;
15404;SDS011;7801;48.124;11.590;2024-03-02T10:47:56;2.70;;;2.50;;
15404;SDS011;7801;48.124;11.590;2024-03-02T10:50:23;3.17;;;2.90;;
15404;SDS011;7801;48.124;11.590;2024-03-02T10:52:50;4.20;;;3.03;;
15404;SDS011;7801;48.124;11.590;2024-03-02T10:55:17;3.53;;;3.23;;
15404;SDS011;7801;48.124;11.590;2024-03-02T10:57:54;4.03;;;3.73;;
15404;SDS011;7801;48.124;11.590;2024-03-02T11:00:24;4.40;;;4.00;;
15404;SDS011;7801;48.124;11.590;2024-03-02T11:03:04;5.90;;;3.60;;
15404;SDS011;7801;48.124;11.590;2024-03-02T11:05:36;4.93;;;4.50;;
15404;SDS011;7801;48.124;11.590;2024-03-02T11:08:07;4.00;;;3.77;;
15404;SDS011;7801;48.124;11.590;2024-03-02T11:10:37;5.67;;;4.40;;
15404;SDS011;7801;48.124;11.590;2024-03-02T11:13:11;4.07;;;3.80;;
15404;SDS011;7801;48.124;11.590;2024-03-02T11:15:40;6.37;;;4.47;;
15404;SDS011;7801;48.124;11.590;2024-03-02T11:18:10;7.83;;;4.87;;
15404;SDS011;7801;48.124;11.590;2024-03-02T11:20:40;9.07;;;3.77;;
15404;SDS011;7801;48.124;11.590;2024-03-02T11:23:08;3.30;;;3.10;;
15404;SDS011;7801;48.124;11.590;2024-03-02T11:25:35;4.63;;;4.23;;
15404;SDS011;7801;48.124;11.590;2024-03-02T11:28:02;4.67;;;3.97;;
15404;SDS011;7801;48.124;11.590;2024-03-02T11:33:01;3.80;;;3.40;;
15404;SDS011;7801;48.124;11.590;2024-03-02T11:35:38;6.43;;;5.83;;
15404;SDS011;7801;48.124;11.590;2024-03-02T11:38:15;5.07;;;4.60;;
15404;SDS011;7801;48.124;11.590;2024-03-02T11:40:42;3.80;;;3.53;;
15404;SDS011;7801;48.124;11.590;2024-03-02T11:43:09;4.67;;;4.37;;
15404;SDS011;7801;48.124;11.590;2024-03-02T11:45:35;4.50;;;3.47;;
15404;SDS011;7801;48.124;11.590;2024-03-02T11:48:05;3.57;;;3.23;;
15404;SDS011;7801;48.124;11.590;2024-03-02T11:50:33;4.00;;;3.70;;
15404;SDS011;7801;48.124;11.590;2024-03-02T11:53:02;2.10;;;2.00;;
15404;SDS011;7801;48.124;11.590;2024-03-02T11:55:40;2.20;;;2.10;;
15404;SDS011;7801;48.124;11.590;2024-03-02T11:58:07;2.60;;;2.40;;
15404;SDS011;7801;48.124;11.590;2024-03-02T12:00:34;4.80;;;3.60;;
15404;SDS011;7801;48.124;11.590;2024-03-02T12:05:27;3.73;;;3.40;;
15404;SDS011;7801;48.124;11.590;2024-03-02T12:08:01;3.33;;;3.13;;
15404;SDS011;7801;48.124;11.590;2024-03-02T12:10:31;2.87;;;2.67;;
15404;SDS011;7801;48.124;11.590;2024-03-02T12:13:02;4.30;;;3.60;;
15404;SDS011;7801;48.124;11.590;2024-03-02T12:15:31;3.53;;;3.07;;
15404;SDS011;7801;48.124;11.590;2024-03-02T12:18:02;7.60;;;4.40;;
15404;SDS011;7801;48.124;11.590;2024-03-02T12:20:28;4.33;;;4.03;;
15404;SDS011;7801;48.124;11.590;2024-03-02T12:22:57;3.70;;;3.40;;
15404;SDS011;7801;48.124;11.590;2024-03-02T12:25:26;4.30;;;4.07;;
15404;SDS011;7801;48.124;11.590;2024-03-02T12:27:56;3.33;;;3.03;;
15404;SDS011;7801;48.124;11.590;2024-03-02T12:30:26;2.40;;;2.30;;
15404;SDS011;7801;48.124;11.590;2024-03-02T12:32:55;3.83;;;3.00;;
15404;SDS011;7801;48.124;11.590;2024-03-02T12:35:22;4.30;;;3.53;;
15404;SDS011;7801;48.124;11.590;2024-03-02T12:37:52;3.47;;;3.27;;
15404;SDS011;7801;48.124;11.590;2024-03-02T12:40:20;3.80;;;3.50;;
15404;SDS011;7801;48.124;11.590;2024-03-02T12:42:49;7.53;;;3.20;;
15404;SDS011;7801;48.124;11.590;2024-03-02T12:45:18;5.37;;;5.00;;
15404;SDS011;7801;48.124;11.590;2024-03-02T12:47:53;4.73;;;4.30;;
15404;SDS011;7801;48.124;11.590;2024-03-02T12:50:20;5.27;;;4.40;;
15404;SDS011;7801;48.124;11.590;2024-03-02T12:52:53;4.77;;;4.47;;
15404;SDS011;7801;48.124;11.590;2024-03-02T12:55:20;3.40;;;2.93;;
15404;SDS011;7801;48.124;11.590;2024-03-02T12:57:49;2.47;;;2.37;;
15404;SDS011;7801;48.124;11.590;2024-03-02T13:00:17;3.87;;;3.13;;
15404;SDS011;7801;48.124;11.590;2024-03-02T13:02:45;3.93;;;3.13;;
15404;SDS011;7801;48.124;11.590;2024-03-02T13:05:11;3.53;;;3.33;;
15404;SDS011;7801;48.124;11.590;2024-03-02T13:07:41;2.47;;;2.37;;
15404;SDS011;7801;48.124;11.590;2024-03-02T13:10:06;3.70;;;3.40;;
15404;SDS011;7801;48.124;11.590;2024-03-02T13:12:53;4.63;;;4.30;;
15404;SDS011;7801;48.124;11.590;2024-03-02T13:15:19;4.03;;;3.83;;
15404;SDS011;7801;48.124;11.590;2024-03-02T13:17:46;5.87;;;5.33;;
15404;SDS011;7801;48.124;11.590;2024-03-02T13:20:13;4.37;;;4.17;;
15404;SDS011;7801;48.124;11.590;2024-03-02T13:22:41;4.97;;;4.67;;
15404;SDS011;7801;48.124;11.590;2024-03-02T13:25:06;4.63;;;4.33;;
15404;SDS011;7801;48.124;11.590;2024-03-02T13:27:35;5.30;;;4.77;;
15404;SDS011;7801;48.124;11.590;2024-03-02T13:30:02;6.53;;;6.03;;
15404;SDS011;7801;48.124;11.590;2024-03-02T13:32:29;4.63;;;4.23;;
15404;SDS011;7801;48.124;11.590;2024-03-02T13:34:56;5.03;;;4.63;;
15404;SDS011;7801;48.124;11.590;2024-03-02T13:37:22;3.40;;;3.20;;
15404;SDS011;7801;48.124;11.590;2024-03-02T13:39:48;4.53;;;4.33;;
15404;SDS011;7801;48.124;11.590;2024-03-02T13:42:15;5.03;;;4.63;;
15404;SDS011;7801;48.124;11.590;2024-03-02T13:44:43;5.27;;;4.87;;
15404;SDS011;7801;48.124;11.590;2024-03-02T13:47:30;4.63;;;4.37;;
15404;SDS011;7801;48.124;11.590;2024-03-02T13:49:57;4.83;;;4.53;;
15404;SDS011;7801;48.124;11.590;2024-03-02T13:52:24;3.93;;;3.63;;
15404;SDS011;7801;48.124;11.590;2024-03-02T13:54:52;3.47;;;3.27;;
15404;SDS011;7801;48.124;11.590;2024-03-02T13:57:18;4.60;;;4.40;;
15404;SDS011;7801;48.124;11.590;2024-03-02T13:59:46;5.40;;;4.90;;
15404;SDS011;7801;48.124;11.590;2024-03-02T14:02:11;5.27;;;4.43;;
15404;SDS011;7801;48.124;11.590;2024-03-02T14:04:37;4.47;;;4.10;;
15404;SDS011;7801;48.124;11.590;2024-03-02T14:07:05;5.97;;;3.47;;
15404;SDS011;7801;48.124;11.590;2024-03-02T14:09:32;2.27;;;2.07;;
15404;SDS011;7801;48.124;11.590;2024-03-02T14:11:59;3.27;;;3.07;;
15404;SDS011;7801;48.124;11.590;2024-03-02T14:14:29;10.50;;;3.97;;
15404;SDS011;7801;48.124;11.590;2024-03-02T14:16:56;2.30;;;2.20;;
15404;SDS011;7801;48.124;11.590;2024-03-02T14:19:23;5.77;;;4.43;;
15404;SDS011;7801;48.124;11.590;2024-03-02T14:21:50;3.60;;;3.30;;
15404;SDS011;7801;48.124;11.590;2024-03-02T14:24:17;4.40;;;4.03;;
15404;SDS011;7801;48.124;11.590;2024-03-02T14:26:43;3.93;;;3.77;;
15404;SDS011;7801;48.124;11.590;2024-03-02T14:29:10;6.67;;;5.03;;
15404;SDS011;7801;48.124;11.590;2024-03-02T14:31:39;10.17;;;4.20;;
15404;SDS011;7801;48.124;11.590;2024-03-02T14:34:04;4.43;;;4.13;;
15404;SDS011;7801;48.124;11.590;2024-03-02T14:36:33;5.47;;;4.87;;
15404;SDS011;7801;48.124;11.590;2024-03-02T14:39:00;4.23;;;4.03;;
15404;SDS011;7801;48.124;11.590;2024-03-02T14:41:26;5.07;;;4.47;;
15404;SDS011;7801;48.124;11.590;2024-03-02T14:43:53;4.53;;;4.13;;
15404;SDS011;7801;48.124;11.590;2024-03-02T14:46:20;4.23;;;3.93;;
15404;SDS011;7801;48.124;11.590;2024-03-02T14:48:46;4.23;;;2.97;;
15404;SDS011;7801;48.124;11.590;2024-03-02T14:51:13;2.83;;;2.73;;
15404;SDS011;7801;48.124;11.590;2024-03-02T14:53:40;2.87;;;2.67;;
15404;SDS011;7801;48.124;11.590;2024-03-02T14:56:06;3.03;;;2.83;;
15404;SDS011;7801;48.124;11.590;2024-03-02T14:58:31;3.70;;;3.20;;